Time;durP1;ratioP1;P1;durP2;ratioP2;P2;SDS_P1;SDS_P2;PMS_P1;PMS_P2;Temp;Humidity;BMP_temperature;BMP_pressure;BME280_temperature;BME280_humidity;BME280_pressure;Samples;Min_cycle;Max_cycle;Signal;HPM_P1;HPM_P2
2022/11/25 00:00:38;;;;;;;;;;;;;;;8.74;100.00;100831.84;5050965;28;19983;-90
2022/11/25 00:03:03;;;;;;;;;;;;;;;8.75;100.00;100843.16;5049205;28;19924;-90
2022/11/25 00:05:29;;;;;;;;;;;;;;;8.76;100.00;100842.25;5051919;28;19920;-90
2022/11/25 00:07:54;;;;;;;;;;;;;;;8.75;100.00;100843.16;5025775;28;19987;-90
2022/11/25 00:10:19;;;;;;;;;;;;;;;8.76;100.00;100847.47;5052740;28;19912;-90
2022/11/25 00:12:45;;;;;;;;;;;;;;;8.76;100.00;100847.47;5044306;28;19951;-90
2022/11/25 00:15:10;;;;;;;;;;;;;;;8.76;100.00;100843.09;5053180;28;19912;-90
2022/11/25 00:17:35;;;;;;;;;;;;;;;8.76;100.00;100837.03;5060255;28;19927;-90
2022/11/25 00:20:05;;;;;;;;;;;;;;;8.76;100.00;100835.25;5055746;28;19913;-90
2022/11/25 00:22:30;;;;;;;;;;;;;;;8.77;100.00;100828.31;5051828;28;19955;-90
2022/11/25 00:24:55;;;;;;;;;;;;;;;8.77;100.00;100830.91;5060063;28;20223;-90
2022/11/25 00:27:20;;;;;;;;;;;;;;;8.77;100.00;100833.53;5058603;28;19913;-90
2022/11/25 00:29:46;;;;;;;;;;;;;;;8.78;100.00;100835.22;5071995;28;19931;-90
2022/11/25 00:32:11;;;;;;;;;;;;;;;8.78;100.00;100840.44;5057153;28;20215;-90
2022/11/25 00:34:36;;;;;;;;;;;;;;;8.77;100.00;100834.38;5074688;28;19983;-90
2022/11/25 00:37:09;;;;;;;;;;;;;;;8.79;100.00;100840.41;5066001;28;19919;-90
2022/11/25 00:39:34;;;;;;;;;;;;;;;8.79;100.00;100842.16;5065111;28;20234;-90
2022/11/25 00:44:44;;;;;;;;;;;;;;;8.79;100.00;100845.63;5058032;28;19920;-90
2022/11/25 00:47:10;;;;;;;;;;;;;;;8.80;100.00;100849.06;5066017;28;19921;-90
2022/11/25 00:49:37;;;;;;;;;;;;;;;8.79;100.00;100848.22;5056326;28;20212;-90
2022/11/25 00:52:03;;;;;;;;;;;;;;;8.80;100.00;100849.94;5069723;28;19909;-90
2022/11/25 00:54:31;;;;;;;;;;;;;;;8.80;100.00;100855.16;5077082;28;20166;-90
2022/11/25 00:56:57;;;;;;;;;;;;;;;8.81;100.00;100856.00;5056566;28;19958;-90
2022/11/25 00:59:22;;;;;;;;;;;;;;;8.80;100.00;100865.63;5051689;28;19921;-90
2022/11/25 01:01:48;;;;;;;;;;;;;;;8.81;100.00;100864.69;5076133;28;20270;-90
2022/11/25 01:04:13;;;;;;;;;;;;;;;8.82;100.00;100868.16;5042652;28;19983;-90
2022/11/25 01:06:38;;;;;;;;;;;;;;;8.82;100.00;100862.94;5059412;28;19936;-90
2022/11/25 01:09:04;;;;;;;;;;;;;;;8.82;100.00;100865.53;5042693;28;19951;-90
2022/11/25 01:11:30;;;;;;;;;;;;;;;8.81;100.00;100869.06;5059760;28;20117;-90
2022/11/25 01:13:57;;;;;;;;;;;;;;;8.82;100.00;100863.81;5064438;28;19920;-90
2022/11/25 01:16:22;;;;;;;;;;;;;;;8.82;100.00;100865.53;5059103;28;20398;-90
2022/11/25 01:18:49;;;;;;;;;;;;;;;8.81;100.00;100862.09;5027808;28;19921;-90
2022/11/25 01:21:16;;;;;;;;;;;;;;;8.82;100.00;100866.41;5039174;28;19913;-90
2022/11/25 01:23:42;;;;;;;;;;;;;;;8.83;100.00;100857.66;5057354;28;19913;-90
2022/11/25 01:26:12;;;;;;;;;;;;;;;8.84;100.00;100861.13;5042449;28;20239;-90
2022/11/25 01:28:38;;;;;;;;;;;;;;;8.82;100.00;100861.19;5060363;28;20218;-90
2022/11/25 01:31:08;;;;;;;;;;;;;;;8.83;100.00;100867.25;5063712;28;19925;-90
2022/11/25 01:33:34;;;;;;;;;;;;;;;8.82;100.00;100866.41;5047131;28;19940;-90
2022/11/25 01:36:03;;;;;;;;;;;;;;;8.84;100.00;100868.94;5063223;28;19913;-90
2022/11/25 01:38:28;;;;;;;;;;;;;;;8.83;100.00;100859.44;5055224;28;19932;-90
2022/11/25 01:40:54;;;;;;;;;;;;;;;8.84;100.00;100848.94;5031857;28;19917;-90
2022/11/25 01:43:19;;;;;;;;;;;;;;;8.84;100.00;100856.78;5062603;28;19928;-90
2022/11/25 01:45:44;;;;;;;;;;;;;;;8.83;100.00;100867.25;5062128;28;20230;-90
2022/11/25 01:48:30;;;;;;;;;;;;;;;8.86;100.00;100879.34;5049862;28;19925;-89
2022/11/25 01:50:55;;;;;;;;;;;;;;;8.86;100.00;100861.94;5039406;28;19913;-90
2022/11/25 01:53:21;;;;;;;;;;;;;;;8.86;100.00;100848.88;5044599;28;19950;-90
2022/11/25 01:55:49;;;;;;;;;;;;;;;8.87;100.00;100852.34;5042408;28;19924;-90
2022/11/25 01:58:20;;;;;;;;;;;;;;;8.87;100.00;100860.19;5062202;28;19921;-90
2022/11/25 02:00:50;;;;;;;;;;;;;;;8.88;100.00;100865.34;5072983;28;19916;-90
2022/11/25 02:03:18;;;;;;;;;;;;;;;8.87;100.00;100861.03;5042583;28;19992;-90
2022/11/25 02:06:02;;;;;;;;;;;;;;;8.88;100.00;100864.47;5058856;28;20008;-90
2022/11/25 02:08:28;;;;;;;;;;;;;;;8.88;100.00;100860.13;5058582;28;20101;-90
2022/11/25 02:10:54;;;;;;;;;;;;;;;8.87;100.00;100858.41;5059085;28;19975;-90
2022/11/25 02:13:22;;;;;;;;;;;;;;;8.87;100.00;100868.84;5076729;28;19931;-90
2022/11/25 02:15:48;;;;;;;;;;;;;;;8.88;100.00;100873.19;5075605;28;19923;-90
2022/11/25 02:18:13;;;;;;;;;;;;;;;8.87;100.00;100863.63;5076244;28;19912;-90
2022/11/25 02:20:39;;;;;;;;;;;;;;;8.88;100.00;100867.97;5062824;28;19919;-90
2022/11/25 02:23:24;;;;;;;;;;;;;;;8.87;100.00;100865.41;5062086;28;20011;-90
2022/11/25 02:25:50;;;;;;;;;;;;;;;8.86;100.00;100868.91;5062374;28;20303;-90
2022/11/25 02:28:17;;;;;;;;;;;;;;;8.87;100.00;100857.56;5080025;28;20120;-90
2022/11/25 02:30:43;;;;;;;;;;;;;;;8.86;100.00;100864.56;5065419;28;19983;-90
2022/11/25 02:33:12;;;;;;;;;;;;;;;8.86;100.00;100863.69;5052859;28;19924;-90
2022/11/25 02:35:38;;;;;;;;;;;;;;;8.87;100.00;100863.63;5050642;28;20127;-89
2022/11/25 02:38:05;;;;;;;;;;;;;;;8.86;100.00;100856.72;5064011;28;19920;-90
2022/11/25 02:40:33;;;;;;;;;;;;;;;8.87;100.00;100861.03;5048570;28;20039;-90
2022/11/25 02:42:59;;;;;;;;;;;;;;;8.87;100.00;100858.41;5049847;28;19925;-90
2022/11/25 02:45:38;;;;;;;;;;;;;;;8.87;100.00;100863.63;5060194;28;19959;-90
2022/11/25 02:48:04;;;;;;;;;;;;;;;8.87;100.00;100870.63;5053753;28;19921;-90
2022/11/25 02:50:29;;;;;;;;;;;;;;;8.88;100.00;100880.16;5057613;28;20227;-90
2022/11/25 02:52:54;;;;;;;;;;;;;;;8.89;100.00;100879.25;5062513;28;20129;-90
2022/11/25 02:55:19;;;;;;;;;;;;;;;8.88;100.00;100872.31;5058335;28;19951;-90
2022/11/25 02:57:45;;;;;;;;;;;;;;;8.89;100.00;100881.88;5064076;28;19967;-90
2022/11/25 03:00:10;;;;;;;;;;;;;;;8.88;100.00;100881.03;5038134;28;19924;-89
2022/11/25 03:02:36;;;;;;;;;;;;;;;8.89;100.00;100885.31;5032750;28;19925;-90
2022/11/25 03:05:01;;;;;;;;;;;;;;;8.88;100.00;100883.63;5047055;28;19929;-90
2022/11/25 03:07:26;;;;;;;;;;;;;;;8.88;100.00;100896.69;5049130;28;19935;-90
2022/11/25 03:09:52;;;;;;;;;;;;;;;8.88;100.00;100906.28;5036464;28;19924;-90
2022/11/25 03:12:20;;;;;;;;;;;;;;;8.88;100.00;100908.88;5050453;28;20670;-90
2022/11/25 03:14:46;;;;;;;;;;;;;;;8.88;100.00;100911.50;5055508;28;19925;-90
2022/11/25 03:17:12;;;;;;;;;;;;;;;8.88;100.00;100903.66;5058029;28;20250;-90
2022/11/25 03:19:37;;;;;;;;;;;;;;;8.88;100.00;100901.03;5048325;28;19995;-90
2022/11/25 03:22:02;;;;;;;;;;;;;;;8.88;100.00;100895.81;5057490;28;19916;-90
2022/11/25 03:24:28;;;;;;;;;;;;;;;8.88;100.00;100914.09;5067006;28;19920;-90
2022/11/25 03:26:53;;;;;;;;;;;;;;;8.87;100.00;100913.25;5050640;28;20038;-90
2022/11/25 03:29:18;;;;;;;;;;;;;;;8.87;100.00;100928.94;5067212;28;20010;-90
2022/11/25 03:31:44;;;;;;;;;;;;;;;8.88;100.00;100924.53;5045065;28;19928;-90
2022/11/25 03:34:12;;;;;;;;;;;;;;;8.87;100.00;100934.16;5046285;28;19962;-89
2022/11/25 03:36:38;;;;;;;;;;;;;;;8.87;100.00;100933.31;5049558;28;19929;-90
2022/11/25 03:39:03;;;;;;;;;;;;;;;8.87;100.00;100936.75;5062591;28;19920;-90
2022/11/25 03:41:28;;;;;;;;;;;;;;;8.87;100.00;100944.59;5071513;28;19924;-90
2022/11/25 03:43:54;;;;;;;;;;;;;;;8.86;100.00;100945.53;5065208;28;19974;-90
2022/11/25 03:46:19;;;;;;;;;;;;;;;8.84;100.00;100945.56;5071866;28;19920;-88
2022/11/25 03:48:44;;;;;;;;;;;;;;;8.86;100.00;100955.97;5052884;28;19983;-87
2022/11/25 03:51:10;;;;;;;;;;;;;;;8.84;100.00;100948.19;5054223;28;19932;-87
2022/11/25 03:53:35;;;;;;;;;;;;;;;8.84;100.00;100957.75;5058884;28;19932;-87
2022/11/25 03:56:00;;;;;;;;;;;;;;;8.82;100.00;100949.09;5046947;28;19924;-87
2022/11/25 03:58:27;;;;;;;;;;;;;;;8.82;100.00;100949.09;5063452;28;19921;-87
2022/11/25 04:00:52;;;;;;;;;;;;;;;8.82;100.00;100956.94;5036470;28;19924;-87
2022/11/25 04:03:17;;;;;;;;;;;;;;;8.82;100.00;100960.44;5062340;28;20160;-87
2022/11/25 04:05:43;;;;;;;;;;;;;;;8.80;100.00;100954.41;5050726;28;19917;-87
2022/11/25 04:08:08;;;;;;;;;;;;;;;8.80;100.00;100959.63;5057429;28;19984;-87
2022/11/25 04:10:33;;;;;;;;;;;;;;;8.79;100.00;100951.84;5061607;28;19935;-87
2022/11/25 04:12:59;;;;;;;;;;;;;;;8.78;100.00;100961.41;5061663;28;20253;-87
2022/11/25 04:15:24;;;;;;;;;;;;;;;8.77;100.00;100959.72;5046500;28;20024;-87
2022/11/25 04:17:49;;;;;;;;;;;;;;;8.76;100.00;100960.59;5056554;28;19938;-87
2022/11/25 04:20:15;;;;;;;;;;;;;;;8.75;100.00;100960.66;5069762;28;19928;-87
2022/11/25 04:22:40;;;;;;;;;;;;;;;8.74;100.00;100964.19;5055157;28;20219;-87
2022/11/25 04:25:06;;;;;;;;;;;;;;;8.74;100.00;100966.78;5063399;28;19916;-87
2022/11/25 04:27:33;;;;;;;;;;;;;;;8.73;100.00;100971.16;5049778;28;19989;-88
2022/11/25 04:29:58;;;;;;;;;;;;;;;8.73;100.00;100973.78;5057176;28;20143;-87
2022/11/25 04:32:23;;;;;;;;;;;;;;;8.70;100.00;100976.47;5070521;28;19999;-87
2022/11/25 04:34:49;;;;;;;;;;;;;;;8.71;100.00;100990.38;5048277;28;20001;-87
2022/11/25 04:37:14;;;;;;;;;;;;;;;8.70;100.00;100991.28;5063854;28;19927;-87
2022/11/25 04:39:39;;;;;;;;;;;;;;;8.70;100.00;100999.13;5056980;28;19923;-87
2022/11/25 04:44:49;;;;;;;;;;;;;;;8.68;100.00;101001.78;5061135;28;19932;-87
2022/11/25 04:47:14;;;;;;;;;;;;;;;8.68;100.00;101003.50;5050389;28;19925;-87
2022/11/25 04:49:40;;;;;;;;;;;;;;;8.65;100.00;101007.09;5048666;28;19929;-87
2022/11/25 04:52:05;;;;;;;;;;;;;;;8.67;100.00;101009.66;5047954;28;19967;-87
2022/11/25 04:54:30;;;;;;;;;;;;;;;8.67;100.00;101012.25;5056867;28;19932;-87
2022/11/25 04:56:56;;;;;;;;;;;;;;;8.65;100.00;101007.09;5037654;28;19924;-87
2022/11/25 04:59:39;;;;;;;;;;;;;;;8.64;100.00;101008.84;5047790;28;19925;-87
2022/11/25 05:02:05;;;;;;;;;;;;;;;8.64;100.00;101008.84;5064178;28;19920;-87
2022/11/25 05:04:31;;;;;;;;;;;;;;;8.65;100.00;101018.38;5046812;28;19912;-87
2022/11/25 05:06:56;;;;;;;;;;;;;;;8.64;100.00;101014.06;5050112;28;20225;-87
2022/11/25 05:09:21;;;;;;;;;;;;;;;8.65;100.00;101020.13;5046866;28;19924;-87
2022/11/25 05:11:47;;;;;;;;;;;;;;;8.63;100.00;101022.78;5070462;28;19979;-87
2022/11/25 05:14:12;;;;;;;;;;;;;;;8.63;100.00;101014.09;5051179;28;20208;-87
2022/11/25 05:16:37;;;;;;;;;;;;;;;8.63;100.00;101032.38;5065924;28;19912;-87
2022/11/25 05:19:05;;;;;;;;;;;;;;;8.63;100.00;101032.38;5056772;28;19970;-87
2022/11/25 05:21:31;;;;;;;;;;;;;;;8.62;100.00;101026.31;5048110;28;19951;-87
2022/11/25 05:23:57;;;;;;;;;;;;;;;8.62;100.00;101033.28;5064788;28;19921;-87
2022/11/25 05:26:22;;;;;;;;;;;;;;;8.61;100.00;101042.03;5066207;28;19943;-87
2022/11/25 05:28:47;;;;;;;;;;;;;;;8.58;100.00;101050.78;5057503;28;19924;-87
2022/11/25 05:31:13;;;;;;;;;;;;;;;8.59;100.00;101062.09;5043490;28;20204;-87
2022/11/25 05:33:38;;;;;;;;;;;;;;;8.59;100.00;101062.09;5068956;28;19928;-87
2022/11/25 05:36:04;;;;;;;;;;;;;;;8.59;100.00;101064.72;5047460;28;20257;-86
2022/11/25 05:38:29;;;;;;;;;;;;;;;8.58;100.00;101065.59;5065777;28;19927;-87
2022/11/25 05:41:05;;;;;;;;;;;;;;;8.58;100.00;101063.00;5052739;28;20147;-87
2022/11/25 05:43:30;;;;;;;;;;;;;;;8.57;100.00;101050.84;5062139;28;20171;-87
2022/11/25 05:45:55;;;;;;;;;;;;;;;8.57;100.00;101064.75;5062145;28;20124;-87
2022/11/25 05:48:21;;;;;;;;;;;;;;;8.56;100.00;101070.84;5061761;28;20282;-87
2022/11/25 05:50:46;;;;;;;;;;;;;;;8.56;100.00;101070.00;5044685;28;19925;-87
2022/11/25 05:53:12;;;;;;;;;;;;;;;8.55;100.00;101074.38;5045259;28;19928;-87
2022/11/25 05:55:38;;;;;;;;;;;;;;;8.55;100.00;101074.38;5050831;28;20317;-87
2022/11/25 05:58:04;;;;;;;;;;;;;;;8.53;100.00;101062.25;5058769;28;19920;-87
2022/11/25 06:00:30;;;;;;;;;;;;;;;8.54;100.00;101067.44;5051210;28;19976;-87
2022/11/25 06:02:55;;;;;;;;;;;;;;;8.52;100.00;101069.25;5065382;28;19931;-87
2022/11/25 06:05:21;;;;;;;;;;;;;;;8.51;100.00;101072.72;5053793;28;19931;-87
2022/11/25 06:07:46;;;;;;;;;;;;;;;8.51;100.00;101082.34;5069316;28;19920;-87
2022/11/25 06:10:12;;;;;;;;;;;;;;;8.51;100.00;101085.78;5058483;28;20006;-87
2022/11/25 06:12:37;;;;;;;;;;;;;;;8.49;100.00;101084.97;5048261;28;19920;-87
2022/11/25 06:15:03;;;;;;;;;;;;;;;8.49;100.00;101091.97;5069840;28;19936;-87
2022/11/25 06:17:28;;;;;;;;;;;;;;;8.49;100.00;101084.13;5063208;28;19960;-87
2022/11/25 06:19:54;;;;;;;;;;;;;;;8.47;100.00;101088.53;5054547;28;19920;-87
2022/11/25 06:22:19;;;;;;;;;;;;;;;8.47;100.00;101089.41;5050872;28;19924;-87
2022/11/25 06:24:45;;;;;;;;;;;;;;;8.44;100.00;101090.34;5061108;28;19936;-87
2022/11/25 06:27:10;;;;;;;;;;;;;;;8.45;100.00;101091.19;5054349;28;19962;-87
2022/11/25 06:29:35;;;;;;;;;;;;;;;8.43;100.00;101093.00;5057914;28;19933;-87
2022/11/25 06:32:01;;;;;;;;;;;;;;;8.43;100.00;101106.03;5068862;28;19928;-87
2022/11/25 06:34:26;;;;;;;;;;;;;;;8.42;100.00;101102.59;5049094;28;19924;-87
2022/11/25 06:36:52;;;;;;;;;;;;;;;8.40;100.00;101106.97;5071607;28;19924;-87
2022/11/25 06:39:17;;;;;;;;;;;;;;;8.40;100.00;101108.69;5058134;28;20212;-87
2022/11/25 06:41:43;;;;;;;;;;;;;;;8.38;100.00;101107.88;5072699;28;19988;-87
2022/11/25 06:44:08;;;;;;;;;;;;;;;8.37;100.00;101116.63;5055106;28;19981;-87
2022/11/25 06:46:33;;;;;;;;;;;;;;;8.36;100.00;101115.75;5059462;28;20150;-87
2022/11/25 06:48:59;;;;;;;;;;;;;;;8.37;100.00;101127.06;5066395;28;20231;-87
2022/11/25 06:51:24;;;;;;;;;;;;;;;8.35;100.00;101128.84;5065627;28;19920;-87
2022/11/25 06:53:50;;;;;;;;;;;;;;;8.35;100.00;101134.06;5074183;28;19924;-87
2022/11/25 06:56:23;;;;;;;;;;;;;;;8.33;100.00;101134.13;5050779;28;19921;-87
2022/11/25 06:58:48;;;;;;;;;;;;;;;8.33;100.00;101138.47;5043857;28;19928;-87
2022/11/25 07:01:21;;;;;;;;;;;;;;;8.32;100.00;101150.66;5042965;28;19908;-87
2022/11/25 07:03:50;;;;;;;;;;;;;;;8.30;100.00;101152.47;5050002;28;20163;-87
2022/11/25 07:06:18;;;;;;;;;;;;;;;8.31;100.00;101153.31;5060751;28;19940;-87
2022/11/25 07:08:44;;;;;;;;;;;;;;;8.29;100.00;101145.50;5063308;28;19917;-87
2022/11/25 07:11:30;;;;;;;;;;;;;;;8.29;100.00;101149.88;5028953;28;19979;-87
2022/11/25 07:13:57;;;;;;;;;;;;;;;8.27;100.00;101156.00;5041164;28;19928;-88
2022/11/25 07:16:23;;;;;;;;;;;;;;;8.27;100.00;101155.13;5075230;28;19944;-87
2022/11/25 07:18:48;;;;;;;;;;;;;;;8.26;100.00;101167.34;5075211;28;20254;-87
2022/11/25 07:21:16;;;;;;;;;;;;;;;8.26;100.00;101166.50;5057617;28;19925;-87
2022/11/25 07:23:42;;;;;;;;;;;;;;;8.25;100.00;101183.88;5063236;28;19917;-87
2022/11/25 07:26:10;;;;;;;;;;;;;;;8.24;100.00;101179.56;5053196;28;19927;-87
2022/11/25 07:28:35;;;;;;;;;;;;;;;8.23;100.00;101187.44;5062851;28;20196;-87
2022/11/25 07:31:08;;;;;;;;;;;;;;;8.23;100.00;101182.22;5051430;28;19944;-87
2022/11/25 07:33:34;;;;;;;;;;;;;;;8.23;100.00;101184.81;5067610;28;19932;-87
2022/11/25 07:36:00;;;;;;;;;;;;;;;8.22;100.00;101188.31;5062264;28;19921;-87
2022/11/25 07:38:26;;;;;;;;;;;;;;;8.23;100.00;101203.09;5045813;28;19912;-87
2022/11/25 07:40:51;;;;;;;;;;;;;;;8.21;100.00;101202.28;5062464;28;19934;-87
2022/11/25 07:43:17;;;;;;;;;;;;;;;8.20;100.00;101211.84;5078949;28;19912;-87
2022/11/25 07:45:42;;;;;;;;;;;;;;;8.20;100.00;101216.19;5057942;28;19920;-87
2022/11/25 07:48:07;;;;;;;;;;;;;;;8.20;100.00;101221.41;5041899;28;19927;-87
2022/11/25 07:50:33;;;;;;;;;;;;;;;8.17;100.00;101230.19;5061235;28;20211;-87
2022/11/25 07:52:58;;;;;;;;;;;;;;;8.15;100.00;101228.50;5076609;28;19951;-86
2022/11/25 07:58:42;;;;;;;;;;;;;;;8.14;100.00;101252.88;5061693;28;20113;-87
2022/11/25 08:01:08;;;;;;;;;;;;;;;8.13;100.00;101259.88;5062928;28;19959;-87
2022/11/25 08:03:35;;;;;;;;;;;;;;;8.12;100.00;101255.53;5061986;28;19908;-87
2022/11/25 08:06:29;;;;;;;;;;;;;;;8.12;100.00;101255.53;5061078;28;20147;-87
2022/11/25 08:08:58;;;;;;;;;;;;;;;8.12;100.00;101254.69;5061061;28;19973;-87
2022/11/25 08:11:28;;;;;;;;;;;;;;;8.11;100.00;101263.38;5072975;28;19912;-87
2022/11/25 08:14:25;;;;;;;;;;;;;;;8.11;100.00;101266.84;5063300;28;19917;-87
2022/11/25 08:20:09;;;;;;;;;;;;;;;8.12;100.00;101273.78;5074274;28;20100;-87
2022/11/25 08:23:02;;;;;;;;;;;;;;;8.12;100.00;101271.19;5075784;28;19962;-87
2022/11/25 08:28:53;;;;;;;;;;;;;;;;;;;;;
2022/11/25 08:31:22;;;;;;;;;;;;;;;8.12;100.00;101284.22;5067800;28;20055;-87
2022/11/25 08:33:48;;;;;;;;;;;;;;;8.12;100.00;101280.78;5059811;28;19930;-87
2022/11/25 08:36:14;;;;;;;;;;;;;;;8.11;100.00;101282.50;5075399;28;19983;-87
2022/11/25 08:38:40;;;;;;;;;;;;;;;8.12;100.00;101291.22;5056466;28;19932;-87
2022/11/25 08:41:32;;;;;;;;;;;;;;;8.11;100.00;101294.69;5059070;28;19948;-89
2022/11/25 08:44:01;;;;;;;;;;;;;;;8.11;100.00;101298.16;5045946;28;19927;-87
2022/11/25 08:46:28;;;;;;;;;;;;;;;8.12;100.00;101299.03;5056176;28;20303;-87
2022/11/25 08:48:56;;;;;;;;;;;;;;;8.12;100.00;101299.88;5068595;28;20300;-87
2022/11/25 08:51:25;;;;;;;;;;;;;;;8.12;100.00;101310.31;5059124;28;20021;-87
2022/11/25 08:54:09;;;;;;;;;;;;;;;8.12;100.00;101310.31;5052629;28;19939;-87
2022/11/25 08:56:34;;;;;;;;;;;;;;;8.14;100.00;101318.97;5045217;28;20147;-87
2022/11/25 08:59:00;;;;;;;;;;;;;;;8.14;100.00;101318.97;5056364;28;19931;-87
2022/11/25 09:01:25;;;;;;;;;;;;;;;8.15;100.00;101330.25;5074837;28;19920;-87
2022/11/25 09:04:14;;;;;;;;;;;;;;;8.15;100.00;101335.47;5076055;28;19920;-88
2022/11/25 09:06:42;;;;;;;;;;;;;;;8.17;100.00;101333.72;5070978;28;20111;-87
2022/11/25 09:09:10;;;;;;;;;;;;;;;8.17;100.00;101334.56;5057424;28;19967;-87
2022/11/25 09:11:37;;;;;;;;;;;;;;;8.19;100.00;101344.97;5041283;28;19927;-87
2022/11/25 09:14:08;;;;;;;;;;;;;;;8.19;100.00;101342.34;5059209;28;20038;-87
2022/11/25 09:16:33;;;;;;;;;;;;;;;8.20;100.00;101347.50;5044986;28;19947;-87
2022/11/25 09:18:58;;;;;;;;;;;;;;;8.21;100.00;101351.00;5056704;28;19952;-87
2022/11/25 09:21:24;;;;;;;;;;;;;;;8.21;100.00;101353.59;5057199;28;19949;-87
2022/11/25 09:23:50;;;;;;;;;;;;;;;8.22;100.00;101356.19;5060016;28;19920;-87
2022/11/25 09:26:23;;;;;;;;;;;;;;;8.23;100.00;101359.66;5077951;28;19915;-87
2022/11/25 09:29:00;;;;;;;;;;;;;;;8.23;100.00;101362.25;5063083;28;19943;-87
2022/11/25 09:31:25;;;;;;;;;;;;;;;8.25;100.00;101365.69;5069981;28;19920;-87
2022/11/25 09:33:51;;;;;;;;;;;;;;;8.25;100.00;101374.34;5063297;28;20154;-87
2022/11/25 09:36:17;;;;;;;;;;;;;;;8.27;100.00;101380.41;5064196;28;19913;-87
2022/11/25 09:38:45;;;;;;;;;;;;;;;8.26;100.00;101388.28;5062214;28;19920;-87
2022/11/25 09:46:40;;;;;;;;;;;;;;;8.26;100.00;101389.13;5046916;28;19947;-87
2022/11/25 09:47:25;;;;;;;;;;;;;;;8.30;100.00;101402.13;5064530;28;20023;-87
2022/11/25 09:50:01;;;;;;;;;;;;;;;8.31;100.00;101403.84;5049253;28;20288;-87
2022/11/25 09:52:29;;;;;;;;;;;;;;;8.31;100.00;101407.28;5045987;28;19928;-87
2022/11/25 09:55:04;;;;;;;;;;;;;;;8.32;100.00;101410.78;5046018;28;19924;-87
2022/11/25 09:57:40;;;;;;;;;;;;;;;8.33;100.00;101420.31;5047970;28;19931;-87
2022/11/25 10:00:11;;;;;;;;;;;;;;;8.34;100.00;101427.25;5045667;28;20109;-87
2022/11/25 10:02:40;;;;;;;;;;;;;;;8.33;100.00;101417.69;5047377;28;20437;-87
2022/11/25 10:05:08;;;;;;;;;;;;;;;8.34;100.00;101427.25;5046564;28;19959;-87
2022/11/25 10:07:36;;;;;;;;;;;;;;;8.35;100.00;101421.13;5046338;28;19916;-87
2022/11/25 10:10:03;;;;;;;;;;;;;;;8.35;100.00;101427.22;5041874;28;19920;-87
2022/11/25 10:12:33;;;;;;;;;;;;;;;8.37;100.00;101429.81;5066459;28;19924;-87
2022/11/25 10:15:06;;;;;;;;;;;;;;;8.37;100.00;101441.09;5043092;28;20171;-87
2022/11/25 10:17:38;;;;;;;;;;;;;;;8.39;100.00;101441.06;5046419;28;19928;-87
2022/11/25 10:20:06;;;;;;;;;;;;;;;8.39;100.00;101449.75;5046181;28;20122;-87
2022/11/25 10:22:34;;;;;;;;;;;;;;;8.39;100.00;101439.31;5044415;28;19952;-87
2022/11/25 10:25:01;;;;;;;;;;;;;;;8.40;100.00;101454.09;5046765;28;19920;-87
2022/11/25 10:27:32;;;;;;;;;;;;;;;8.43;100.00;101453.19;5046968;28;20618;-87
2022/11/25 10:30:18;;;;;;;;;;;;;;;8.44;100.00;101454.88;5048489;28;19954;-87
2022/11/25 10:32:48;;;;;;;;;;;;;;;8.44;100.00;101455.78;5045856;28;19920;-87
2022/11/25 10:35:26;;;;;;;;;;;;;;;8.47;100.00;101457.44;5046609;28;19928;-87
2022/11/25 10:37:54;;;;;;;;;;;;;;;8.49;100.00;101466.09;5046808;28;20154;-88
2022/11/25 10:40:19;;;;;;;;;;;;;;;8.49;100.00;101466.09;5042888;28;20139;-87
2022/11/25 10:42:45;;;;;;;;;;;;;;;8.52;100.00;101470.41;5042743;28;20205;-87
2022/11/25 10:45:40;;;;;;;;;;;;;;;8.54;100.00;101479.91;5027577;28;19924;-87
2022/11/25 10:48:09;;;;;;;;;;;;;;;8.56;100.00;101479.88;5060238;28;20295;-87
2022/11/25 10:50:53;;;;;;;;;;;;;;;8.58;100.00;101483.31;5042984;28;19927;-88
2022/11/25 10:53:24;;;;;;;;;;;;;;;8.60;100.00;101489.34;5041200;28;20201;-87
2022/11/25 10:56:00;;;;;;;;;;;;;;;8.61;100.00;101491.09;5043946;28;19923;-88
2022/11/25 10:58:38;;;;;;;;;;;;;;;8.63;100.00;101492.75;5042020;28;19920;-87
2022/11/25 11:01:24;;;;;;;;;;;;;;;8.65;100.00;101495.34;5061834;28;19908;-88
2022/11/25 11:04:01;;;;;;;;;;;;;;;8.68;100.00;101504.84;5044958;28;19928;-88
2022/11/25 11:06:34;;;;;;;;;;;;;;;8.69;100.00;101506.56;5039825;28;19920;-87
2022/11/25 11:09:02;;;;;;;;;;;;;;;8.71;100.00;101521.31;5043990;28;19917;-87
2022/11/25 11:11:28;;;;;;;;;;;;;;;8.72;100.00;101530.03;5020901;28;19924;-87
2022/11/25 11:13:59;;;;;;;;;;;;;;;8.73;100.00;101529.09;5046756;28;20031;-87
2022/11/25 11:16:26;;;;;;;;;;;;;;;8.75;100.00;101532.53;5042297;28;19973;-87
2022/11/25 11:18:53;;;;;;;;;;;;;;;8.77;100.00;101533.41;5044065;28;20184;-87
2022/11/25 11:21:23;;;;;;;;;;;;;;;8.78;100.00;101542.94;5061789;28;20238;-88
2022/11/25 11:23:52;;;;;;;;;;;;;;;8.81;100.00;101537.66;5045725;28;19920;-88
2022/11/25 11:26:24;;;;;;;;;;;;;;;8.84;100.00;101546.28;5044226;28;20597;-87
2022/11/25 11:28:56;;;;;;;;;;;;;;;8.86;100.00;101543.63;5043726;28;19920;-87
2022/11/25 11:31:24;;;;;;;;;;;;;;;8.88;100.00;101548.81;5042291;28;20124;-87
2022/11/25 11:34:08;;;;;;;;;;;;;;;8.89;100.00;101550.53;5040801;28;20163;-87
2022/11/25 11:36:46;;;;;;;;;;;;;;;8.90;100.00;101554.88;5047749;28;19921;-88
2022/11/25 11:39:23;;;;;;;;;;;;;;;8.90;100.00;101558.34;5043882;28;19920;-87
2022/11/25 11:42:15;;;;;;;;;;;;;;;8.90;100.00;101571.41;5044629;28;19921;-87
2022/11/25 11:45:02;;;;;;;;;;;;;;;8.92;100.00;101568.75;5062939;28;19951;-87
2022/11/25 11:47:55;;;;;;;;;;;;;;;8.92;100.00;101567.00;5058188;28;20004;-87
2022/11/25 11:50:25;;;;;;;;;;;;;;;8.92;100.00;101569.63;5022223;28;19920;-87
2022/11/25 11:53:11;;;;;;;;;;;;;;;8.92;100.00;101566.16;5040263;28;19938;-88
2022/11/25 11:55:42;;;;;;;;;;;;;;;8.93;100.00;101583.53;5005616;28;20119;-87
2022/11/25 11:58:11;;;;;;;;;;;;;;;8.94;100.00;101580.88;5043825;28;19986;-87
2022/11/25 12:00:43;;;;;;;;;;;;;;;8.94;100.00;101578.28;5046793;28;19940;-87
2022/11/25 12:03:23;;;;;;;;;;;;;;;8.95;100.00;101585.22;5063390;28;19947;-87
2022/11/25 12:05:53;;;;;;;;;;;;;;;8.96;100.00;101584.31;5048277;28;19916;-87
2022/11/25 12:08:37;;;;;;;;;;;;;;;8.97;100.00;101590.44;5029257;28;20239;-87
2022/11/25 12:11:11;;;;;;;;;;;;;;;8.99;100.00;101593.84;5044110;28;19923;-87
2022/11/25 12:13:45;;;;;;;;;;;;;;;9.00;100.00;101596.44;5061229;28;20129;-87
2022/11/25 12:16:12;;;;;;;;;;;;;;;9.02;100.00;101602.50;5043325;28;19939;-88
2022/11/25 12:18:37;;;;;;;;;;;;;;;9.03;100.00;101592.88;5062995;28;19924;-89
2022/11/25 12:21:04;;;;;;;;;;;;;;;9.05;100.00;101606.78;5044101;28;20222;-89
2022/11/25 12:23:48;;;;;;;;;;;;;;;9.08;100.00;101608.44;5047234;28;19916;-87
2022/11/25 12:26:18;;;;;;;;;;;;;;;9.09;100.00;101610.19;5047172;28;19925;-87
2022/11/25 12:28:47;;;;;;;;;;;;;;;9.10;100.00;101620.59;5064757;28;20108;-87
2022/11/25 12:31:16;;;;;;;;;;;;;;;9.13;100.00;101617.06;5046061;28;20359;-86
2022/11/25 12:33:50;;;;;;;;;;;;;;;9.12;100.00;101620.56;5045819;28;19921;-87
2022/11/25 12:36:23;;;;;;;;;;;;;;;9.14;100.00;101621.41;5046257;28;19994;-87
2022/11/25 12:38:52;;;;;;;;;;;;;;;9.16;100.00;101627.44;5057810;28;19925;-86
2022/11/25 12:41:37;;;;;;;;;;;;;;;9.15;100.00;101626.59;5043907;28;20182;-87
2022/11/25 12:44:18;;;;;;;;;;;;;;;9.15;100.00;101634.44;5042594;28;19992;-89
2022/11/25 12:46:49;;;;;;;;;;;;;;;9.16;100.00;101633.53;5060554;28;19927;-87
2022/11/25 12:53:05;;;;;;;;;;;;;;;9.17;100.00;101645.72;5060617;28;20232;-87
2022/11/25 12:55:36;;;;;;;;;;;;;;;9.18;100.00;101647.41;5033078;28;19924;-87
2022/11/25 12:58:37;;;;;;;;;;;;;;;9.18;100.00;101652.63;5036677;28;19983;-86
2022/11/25 13:01:22;;;;;;;;;;;;;;;;;;;;;
2022/11/25 13:04:09;;;;;;;;;;;;;;;9.23;100.00;101665.63;5021717;28;19983;-87
2022/11/25 13:06:53;;;;;;;;;;;;;;;9.23;100.00;101653.41;5038101;28;19923;-86
2022/11/25 13:09:34;;;;;;;;;;;;;;;9.25;100.00;101665.59;5026266;28;20215;-87